K5-CU

EHJJ · Paesi Bassi

Storia di METAR EHJJ · K5-CU

Di seguito sono riportati i METAR degli ultimi giorni. Seleziona un anno per sfogliare i METAR più vecchi, dall'anno 2007 in poi.

14 giugno 2024

Tempo Codice Tempo meteorologico Temp. Vista Base nuvolosa Vento METAR/SPECI
08:25
M
12 °C 10 km+ 2.000 ft 180° 180° 21 kt METAR EHJA 140625Z AUTO 18021KT 9999 FEW005/// BKN020/// OVC023/// 12/12 Q1002
07:55
I
13 °C 10 km+ 900 ft 190° 190° 23 kt METAR EHJA 140555Z AUTO 19023KT 9999 FEW006/// SCT008/// BKN009/// 13/11 Q1002
07:25
M
13 °C 10 km+ 1.000 ft 190° 190° 20 kt METAR EHJA 140525Z AUTO 19020KT 9999 FEW007/// SCT008/// BKN010/// 13/11 Q1002
06:55
M
13 °C 10 km+ 1.000 ft 180° 180° 21 kt METAR EHJA 140455Z AUTO 18021KT 9999 FEW007/// SCT009/// BKN010/// 13/11 Q1002
06:25
I
13 °C 10 km+ 900 ft 180° 180° 20 kt METAR EHJA 140425Z AUTO 18020KT 9999 -RA FEW005/// SCT008/// BKN009/// 13/11 Q1002
05:55
M
12 °C 7 km 1.000 ft 180° 180° 22 kt METAR EHJA 140355Z AUTO 18022KT 7000 FEW005/// SCT008/// BKN010/// 12/11 Q1003
05:25
M
13 °C 10 km+ 1.600 ft 170° 170° 22 kt METAR EHJA 140325Z AUTO 17022KT 9999 -RA FEW013/// BKN016/// OVC019/// 13/11 Q1003
04:55
M
13 °C 10 km+ 2.100 ft 170° 170° 23 kt METAR EHJA 140255Z AUTO 17023KT 9999 SCT018/// BKN021/// OVC024/// 13/10 Q1003
04:25
M
13 °C 10 km+ 2.600 ft 170° 170° 25 kt METAR EHJA 140225Z AUTO 17025KT 9999 FEW018/// SCT023/// BKN026/// 13/10 Q1004
03:55
V
13 °C 10 km+ 4.300 ft 160° 160° 23 kt METAR EHJA 140155Z AUTO 16023KT 9999 FEW023/// SCT034/// BKN043/// 13/10 Q1004 REDZ
03:25
V
13 °C 10 km+ - 160° 160° 22 kt METAR EHJA 140125Z AUTO 16022KT 9999 -DZ FEW026/// SCT039/// 13/09 Q1005 REDZ
02:55
V
13 °C 10 km+ 3.800 ft 170° 170° 22 kt METAR EHJA 140055Z AUTO 17022KT 9999 -DZ SCT026/// SCT030/// BKN038/// 13/09 Q1005 REDZ
02:25
M
13 °C 10 km+ 3.000 ft 180° 180° 21 kt METAR EHJA 140025Z AUTO 18021KT 9999 FEW026/// BKN030/// BKN034/// 13/09 Q1006 REDZ
01:55
V
13 °C 10 km+ 4.200 ft 180° 180° 18 kt METAR EHJA 132355Z AUTO 18018KT 9999 -RA SCT032/// SCT037/// BKN042/// 13/10 Q1006
01:25
V
13 °C 10 km+ 4.700 ft 180° 180° 20 kt METAR EHJA 132325Z AUTO 18020KT 9999 -RA SCT041/// BKN047/// 13/10 Q1006
00:55
V
13 °C 10 km+ - 190° 190° 20 kt METAR EHJA 132255Z AUTO 19020KT 9999 SCT046/// 13/09 Q1007
00:25
V
14 °C 10 km+ - 210° 210° 23 kt METAR EHJA 132225Z AUTO 21023KT 9999 -RA NSC 14/09 Q1007

13 giugno 2024

Tempo Codice Tempo meteorologico Temp. Vista Base nuvolosa Vento METAR/SPECI
23:55
V
14 °C 10 km+ - 220° 220° 25 kt METAR EHJA 132155Z AUTO 22025KT 9999 NSC 14/08 Q1008
23:25
V
13 °C 10 km+ - 200° 200° 19 kt METAR EHJA 132125Z AUTO 20019KT 9999 NSC 13/10 Q1008
22:55
V
13 °C 10 km+ - 200° 200° 19 kt METAR EHJA 132055Z AUTO 20019KT 9999 NSC 13/11 Q1008
22:25
V
14 °C 10 km+ - 200° 200° 21 kt METAR EHJA 132025Z AUTO 20021KT 9999 FEW048/// 14/11 Q1009
21:55
V
13 °C 10 km+ - 200° 200° 21 kt METAR EHJA 131955Z AUTO 20021KT 9999 FEW048/// 13/11 Q1009
21:25
V
13 °C 10 km+ - 190° 190° 20 kt METAR EHJA 131925Z AUTO 19020KT 9999 NSC 13/11 Q1009
20:55
V
13 °C 10 km+ - 190° 190° 20 kt METAR EHJA 131855Z AUTO 19020KT 9999 FEW048/// 13/11 Q1009
20:25
V
13 °C 10 km+ - 190° 190° 20 kt METAR EHJA 131825Z AUTO 19020KT 9999 NSC 13/10 Q1009
19:55
V
13 °C 10 km+ - 190° 190° 19 kt METAR EHJA 131755Z AUTO 19019KT 9999 FEW048/// 13/10 Q1010
19:25
V
13 °C 10 km+ - 190° 190° 18 kt METAR EHJA 131725Z AUTO 19018KT 9999 NSC 13/10 Q1010
18:55
V
13 °C 10 km+ - 200° 200° 18 kt METAR EHJA 131655Z AUTO 20018KT 9999 NSC 13/10 Q1010
17:55
V
13 °C 10 km+ - 190° 190° 14 kt METAR EHJA 131555Z AUTO 19014KT 9999 NSC 13/10 Q1011
17:25
V
13 °C 10 km+ - 190° 190° 13 kt METAR EHJA 131525Z AUTO 19013KT 9999 NSC 13/10 Q1011
16:55
V
13 °C 10 km+ - 190° 190° 13 kt METAR EHJA 131455Z AUTO 19013KT 9999 NSC 13/10 Q1011
16:25
V
13 °C 10 km+ - 200° 200° 13 kt METAR EHJA 131425Z AUTO 20013KT 9999 NSC 13/09 Q1012
15:55
V
13 °C 10 km+ - 210° 210° 14 kt METAR EHJA 131355Z AUTO 21014KT 9999 NSC 13/09 Q1012
15:25
V
13 °C 10 km+ - 220° 220° 15 kt METAR EHJA 131325Z AUTO 22015KT 9999 NSC 13/09 Q1012
14:55
V
13 °C 10 km+ - 220° 220° 17 kt METAR EHJA 131255Z AUTO 22017KT 9999 NSC 13/08 Q1012
14:25
V
13 °C 10 km+ - 220° 220° 18 kt METAR EHJA 131225Z AUTO 22018KT 9999 NSC 13/09 Q1012
13:55
V
13 °C 10 km+ - 220° 220° 19 kt METAR EHJA 131155Z AUTO 22019KT 9999 NSC 13/09 Q1012
13:25
V
13 °C 10 km+ - 220° 220° 20 kt METAR EHJA 131125Z AUTO 22020KT 9999 NSC 13/09 Q1013
12:55
V
13 °C 10 km+ - 220° 220° 15 kt METAR EHJA 131055Z AUTO 22015KT 9999 NSC 13/11 Q1013
12:25
V
13 °C 10 km+ - 210° 210° 16 kt METAR EHJA 131025Z AUTO 21016KT 9999 NSC 13/10 Q1013
11:55
V
13 °C 10 km+ - 210° 210° 15 kt METAR EHJA 130955Z AUTO 21015KT 9999 NSC 13/10 Q1013
11:25
V
13 °C 10 km+ - 210° 210° 10 kt METAR EHJA 130925Z AUTO 21010KT 9999 NSC 13/10 Q1013
10:55
V
13 °C 10 km+ - 210° 210° 8 kt METAR EHJA 130855Z AUTO 21008KT 9999 NSC 13/10 Q1014
10:25
V
13 °C 10 km+ - 200° 200° 9 kt METAR EHJA 130825Z AUTO 20009KT 9999 NSC 13/10 Q1014
09:55
V
13 °C 10 km+ - 200° 200° 7 kt METAR EHJA 130755Z AUTO 20007KT 9999 NSC 13/10 Q1014
09:25
V
13 °C 10 km+ - 210° 210° 7 kt METAR EHJA 130725Z AUTO 21007KT 9999 NSC 13/10 Q1014
08:55
V
12 °C 10 km+ - 210° 210° 6 kt METAR EHJA 130655Z AUTO 21006KT 9999 NSC 12/10 Q1014
08:25
V
12 °C 10 km+ - 200° 200° 7 kt METAR EHJA 130625Z AUTO 20007KT 9999 NSC 12/11 Q1014
07:55
V
12 °C 10 km+ - 190° 190° 8 kt METAR EHJA 130555Z AUTO 19008KT 9999 NSC 12/11 Q1014
07:25
V
12 °C 10 km+ - 180° 180° 7 kt METAR EHJA 130525Z AUTO 18007KT 9999 SCT044/// 12/11 Q1014
06:55
V
12 °C 10 km+ - 170° 170° 7 kt METAR EHJA 130455Z AUTO 17007KT 9999 SCT045/// 12/10 Q1015
06:25
V
12 °C 10 km+ - 170° 170° 8 kt METAR EHJA 130425Z AUTO 17008KT 9999 NSC 12/09 Q1015
05:55
V
12 °C 10 km+ - 170° 170° 8 kt METAR EHJA 130355Z AUTO 17008KT 9999 FEW042/// 12/09 Q1015
05:25
V
12 °C 10 km+ 4.000 ft 180° 180° 8 kt METAR EHJA 130325Z AUTO 18008KT 9999 BKN040/// BKN048/// 12/09 Q1015
04:55
V
12 °C 10 km+ 4.000 ft 200° 200° 7 kt METAR EHJA 130255Z AUTO 20007KT 9999 BKN040/// BKN048/// 12/08 Q1016
04:25
V
12 °C 10 km+ 4.800 ft 200° 200° 7 kt METAR EHJA 130225Z AUTO 20007KT 9999 FEW042/// BKN048/// 12/08 Q1016
03:55
V
11 °C 10 km+ 4.800 ft 210° 210° 7 kt METAR EHJA 130155Z AUTO 21007KT 9999 FEW043/// BKN048/// 11/07 Q1016 REDZ
03:25
V
11 °C 10 km+ 4.300 ft 220° 220° 12 kt METAR EHJA 130125Z AUTO 22012KT 9999 -DZ SCT038/// BKN043/// BKN047/// 11/08 Q1017 REDZ
02:55
V
12 °C 10 km+ 3.800 ft 230° 230° 13 kt METAR EHJA 130055Z AUTO 23013KT 9999 BKN038/// OVC043/// 12/08 Q1017
02:25
V
11 °C 10 km+ 4.200 ft 230° 230° 13 kt METAR EHJA 130025Z AUTO 23013KT 9999 BKN042/// 11/07 Q1017
01:55
V
11 °C 10 km+ - 220° 220° 13 kt METAR EHJA 122355Z AUTO 22013KT 9999 SCT045/// 11/07 Q1017
01:25
V
11 °C 10 km+ 4.700 ft 230° 230° 14 kt METAR EHJA 122325Z AUTO 23014KT 9999 -DZ BKN047/// 11/07 Q1017 REDZ
00:55
V
11 °C 10 km+ 4.800 ft 230° 230° 12 kt METAR EHJA 122255Z AUTO 23012KT 9999 -DZ BKN048/// 11/07 Q1018
00:25
V
11 °C 10 km+ 4.800 ft 240° 240° 13 kt METAR EHJA 122225Z AUTO 24013KT 9999 DZ BKN048/// 11/06 Q1018

12 giugno 2024

Tempo Codice Tempo meteorologico Temp. Vista Base nuvolosa Vento METAR/SPECI
23:55
V
11 °C 10 km+ - 240° 240° 11 kt METAR EHJA 122155Z AUTO 24011KT 9999 NSC 11/06 Q1018
23:25
V
11 °C 10 km+ - 240° 240° 11 kt METAR EHJA 122125Z AUTO 24011KT 9999 NSC 11/07 Q1018
22:55
V
11 °C 10 km+ - 240° 240° 11 kt METAR EHJA 122055Z AUTO 24011KT 9999 NSC 11/06 Q1018
22:25
V
11 °C 10 km+ - 250° 250° 12 kt METAR EHJA 122025Z AUTO 25012KT 9999 FEW019/// 11/07 Q1018
21:55
V
11 °C 10 km+ - 250° 250° 12 kt METAR EHJA 121955Z AUTO 25012KT 9999 FEW019/// 11/06 Q1018
21:25
V
11 °C 10 km+ - 260° 260° 12 kt METAR EHJA 121925Z AUTO 26012KT 9999 FEW020/// 11/06 Q1018
20:55
V
11 °C 10 km+ - 270° 270° 10 kt METAR EHJA 121855Z AUTO 27010KT 9999 FEW020/// 11/06 Q1018
20:25
V
11 °C 10 km+ - 290° 290° 11 kt METAR EHJA 121825Z AUTO 29011KT 9999 FEW019/// 11/06 Q1018
19:55
V
11 °C 10 km+ - 300° 300° 12 kt METAR EHJA 121755Z AUTO 30012KT 9999 FEW019/// 11/06 Q1018
19:25
V
11 °C 10 km+ - 310° 310° 13 kt METAR EHJA 121725Z AUTO 31013KT 9999 FEW021/// 11/05 Q1018
18:55
V
11 °C 10 km+ - 310° 310° 14 kt METAR EHJA 121655Z AUTO 31014KT 9999 FEW022/// 11/06 Q1018
18:25
V
11 °C 10 km+ - 300° 300° 14 kt METAR EHJA 121625Z AUTO 30014KT 9999 NSC 11/06 Q1018
17:55
V
11 °C 10 km+ - 300° 300° 16 kt METAR EHJA 121555Z AUTO 30016KT 9999 FEW024/// 11/05 Q1018
17:25
V
11 °C 10 km+ 4.600 ft 300° 300° 18 kt METAR EHJA 121525Z AUTO 30018KT 9999 FEW024/// BKN046/// 11/05 Q1018
16:55
V
11 °C 10 km+ 4.900 ft 310° 310° 19 kt METAR EHJA 121455Z AUTO 31019KT 9999 FEW024/// SCT045/// BKN049/// 11/05 Q1019
16:25
V
11 °C 10 km+ 3.900 ft 300° 300° 17 kt METAR EHJA 121425Z AUTO 30017KT 9999 SCT035/// BKN039/// BKN045/// 11/05 Q1019
15:55
V
11 °C 10 km+ 3.700 ft 300° 300° 15 kt METAR EHJA 121355Z AUTO 30015KT 9999 FEW021/// SCT033/// OVC037/// 11/06 Q1019
15:25
V
10 °C 10 km+ 3.300 ft 320° 320° 18 kt METAR EHJA 121325Z AUTO 32018KT 9999 FEW018/// SCT023/// BKN033/// 10/06 Q1019 REDZ
14:55
V
11 °C 10 km+ - 310° 310° 20 kt METAR EHJA 121255Z AUTO 31020KT 9999 FEW023/// 11/05 Q1019
14:25
V
11 °C 10 km+ - 310° 310° 19 kt METAR EHJA 121225Z AUTO 31019KT 9999 FEW020/// SCT047/// 11/05 Q1019
13:55
V
11 °C 10 km+ 4.700 ft 310° 310° 21 kt METAR EHJA 121155Z AUTO 31021KT 9999 FEW020/// BKN047/// 11/06 Q1019
13:25
V
11 °C 10 km+ - 300° 300° 20 kt METAR EHJA 121125Z AUTO 30020KT 9999 FEW022/// SCT029/// 11/06 Q1019
12:55
V
11 °C 10 km+ 4.300 ft 310° 310° 23 kt METAR EHJA 121055Z AUTO 31023KT 9999 FEW021/// BKN043/// 11/06 Q1019
12:25
V
11 °C 10 km+ 4.400 ft 310° 310° 23 kt METAR EHJA 121025Z AUTO 31023KT 9999 FEW020/// SCT029/// BKN044/// 11/05 Q1018
11:55
M
10 °C 10 km+ 2.900 ft 320° 320° 27 kt METAR EHJA 120955Z AUTO 32027KT 9999 FEW020/// SCT024/// BKN029/// 10/06 Q1018
11:25
V
11 °C 10 km+ - 320° 320° 23 kt METAR EHJA 120925Z AUTO 32023KT 9999 FEW022/// SCT029/// 11/06 Q1018
10:55
V
11 °C 10 km+ 3.500 ft 310° 310° 25 kt METAR EHJA 120855Z AUTO 31025KT 9999 FEW021/// SCT024/// BKN035/// 11/06 Q1018
10:25
M
11 °C 10 km+ 2.700 ft 310° 310° 22 kt METAR EHJA 120825Z AUTO 31022KT 9999 FEW018/// SCT021/// BKN027/// 11/06 Q1018
09:55
V
11 °C 10 km+ 3.100 ft 320° 320° 22 kt METAR EHJA 120755Z AUTO 32022KT 9999 FEW017/// SCT021/// BKN031/// 11/06 Q1018
09:25
V
10 °C 10 km+ 3.100 ft 300° 300° 21 kt METAR EHJA 120725Z AUTO 30021KT 9999 FEW017/// SCT021/// BKN031/// 10/07 Q1018
08:55
V
11 °C 10 km+ 4.400 ft 310° 310° 22 kt METAR EHJA 120655Z AUTO 31022KT 9999 FEW016/// SCT027/// BKN044/// 11/06 Q1018
08:25
V
10 °C 10 km+ 4.400 ft 320° 320° 26 kt METAR EHJA 120625Z AUTO 32026KT 9999 FEW016/// SCT033/// BKN044/// 10/06 Q1018
07:55
V
11 °C 10 km+ 4.300 ft 320° 320° 25 kt METAR EHJA 120555Z AUTO 32025KT 9999 FEW027/// BKN043/// OVC048/// 11/05 Q1018
Segnala modifiche